Aviation Digital Data Service (ADDS)

Output produced by METARs form (0242 UTC 24 July 2017)
found at http://www.aviationweather.gov/adds/metars/
 
TAF SLCO 231630Z 2318/2418 30008KT 9999 NSC TX33/2319Z TN19/2410Z 
     BECMG 2323/2401 00000KT
       
TAF SLCB 232230Z 2400/2424 24010KT 9999 NSC TX30/2419Z TN04/2411Z 
     PROB30 
     TEMPO 2410/2412 00000KT 
     BECMG 2417/2419 25015KT FEW030
       
TAF SLLP 232230Z 2400/2424 07005KT 9999 NSC TX19/2420Z TNM04/2410Z 
     BECMG 2414/2418 30008KT
       
TAF SLPS 231630Z 2318/2418 09008KT 9999 NSC TX30/2319Z TN18/2410Z 
     BECMG 2323/2401 00000KT 
     BECMG 2415/2418 09008KT FEW020
       
TAF SLET 231630Z 2318/2418 33025G35KT 9999 FEW020 TX32/2319Z TN18/2411Z 
     BECMG 2323/2401 33012KT NSC 
     BECMG 2414/2416 33025G35KT FEW020
       
TAF SLVR 232230Z 2400/2424 34018KT 9999 NSC TX32/2419Z TN18/2411Z 
     BECMG 2414/2416 34025G35KT FEW020
       
TAF SLTJ 231630Z 2318/2418 00000KT 9999 NSC TX33/2319Z TN03/2411Z 
     BECMG 2400/2402 14010KT
       
TAF SLTR 231630Z 2318/2418 31010KT 8000 NSC TX33/2319Z TN18/2410Z 
     BECMG 2323/2401 00000KT